sensor_id;sensor_type;location;lat;lon;timestamp;P1;durP1;ratioP1;P2;durP2;ratioP2
47401;SDS011;33155;48.370;-3.750;2022-09-21T06:02:49;0.20;;;0.20;;
47401;SDS011;33155;48.370;-3.750;2022-09-21T06:05:20;0.10;;;0.10;;
47401;SDS011;33155;48.370;-3.750;2022-09-21T06:07:46;0.10;;;0.10;;
47401;SDS011;33155;48.370;-3.750;2022-09-21T06:10:11;0.30;;;0.30;;
47401;SDS011;33155;48.370;-3.750;2022-09-21T06:12:37;0.30;;;0.28;;
47401;SDS011;33155;48.370;-3.750;2022-09-21T06:15:04;0.75;;;0.20;;
47401;SDS011;33155;48.370;-3.750;2022-09-21T06:17:31;0.20;;;0.20;;
47401;SDS011;33155;48.370;-3.750;2022-09-21T06:19:57;0.28;;;0.20;;
47401;SDS011;33155;48.370;-3.750;2022-09-21T06:22:23;0.30;;;0.30;;
47401;SDS011;33155;48.370;-3.750;2022-09-21T06:24:48;0.20;;;0.20;;
47401;SDS011;33155;48.370;-3.750;2022-09-21T06:27:14;0.28;;;0.22;;
47401;SDS011;33155;48.370;-3.750;2022-09-21T06:29:39;0.45;;;0.30;;
47401;SDS011;33155;48.370;-3.750;2022-09-21T06:32:05;0.25;;;0.20;;
47401;SDS011;33155;48.370;-3.750;2022-09-21T06:34:30;0.30;;;0.30;;
47401;SDS011;33155;48.370;-3.750;2022-09-21T06:36:56;0.22;;;0.22;;
47401;SDS011;33155;48.370;-3.750;2022-09-21T06:39:21;0.82;;;0.52;;
47401;SDS011;33155;48.370;-3.750;2022-09-21T06:41:47;0.57;;;0.30;;
47401;SDS011;33155;48.370;-3.750;2022-09-21T06:44:12;0.20;;;0.20;;
47401;SDS011;33155;48.370;-3.750;2022-09-21T06:46:38;0.50;;;0.43;;
47401;SDS011;33155;48.370;-3.750;2022-09-21T06:49:03;0.43;;;0.30;;
47401;SDS011;33155;48.370;-3.750;2022-09-21T06:51:29;0.28;;;0.20;;
47401;SDS011;33155;48.370;-3.750;2022-09-21T06:53:55;0.35;;;0.20;;
47401;SDS011;33155;48.370;-3.750;2022-09-21T06:56:21;0.50;;;0.25;;
47401;SDS011;33155;48.370;-3.750;2022-09-21T06:58:47;0.20;;;0.20;;
47401;SDS011;33155;48.370;-3.750;2022-09-21T07:01:13;0.50;;;0.30;;
47401;SDS011;33155;48.370;-3.750;2022-09-21T07:03:39;0.20;;;0.20;;
47401;SDS011;33155;48.370;-3.750;2022-09-21T07:06:06;0.52;;;0.28;;
47401;SDS011;33155;48.370;-3.750;2022-09-21T07:08:33;0.45;;;0.40;;
47401;SDS011;33155;48.370;-3.750;2022-09-21T07:10:59;0.52;;;0.40;;
47401;SDS011;33155;48.370;-3.750;2022-09-21T07:13:25;0.43;;;0.28;;
47401;SDS011;33155;48.370;-3.750;2022-09-21T07:15:51;0.20;;;0.20;;
47401;SDS011;33155;48.370;-3.750;2022-09-21T07:18:17;0.28;;;0.20;;
47401;SDS011;33155;48.370;-3.750;2022-09-21T07:20:43;0.30;;;0.30;;
47401;SDS011;33155;48.370;-3.750;2022-09-21T07:23:11;0.30;;;0.30;;
47401;SDS011;33155;48.370;-3.750;2022-09-21T07:25:41;0.47;;;0.38;;
47401;SDS011;33155;48.370;-3.750;2022-09-21T07:28:08;0.20;;;0.20;;
47401;SDS011;33155;48.370;-3.750;2022-09-21T07:30:34;0.65;;;0.30;;
47401;SDS011;33155;48.370;-3.750;2022-09-21T07:33:01;0.47;;;0.30;;
47401;SDS011;33155;48.370;-3.750;2022-09-21T07:35:26;0.40;;;0.32;;
47401;SDS011;33155;48.370;-3.750;2022-09-21T07:37:52;0.32;;;0.30;;
47401;SDS011;33155;48.370;-3.750;2022-09-21T07:40:20;0.40;;;0.25;;
47401;SDS011;33155;48.370;-3.750;2022-09-21T07:42:46;0.52;;;0.50;;
47401;SDS011;33155;48.370;-3.750;2022-09-21T07:45:11;0.40;;;0.40;;
47401;SDS011;33155;48.370;-3.750;2022-09-21T07:47:37;0.82;;;0.55;;
47401;SDS011;33155;48.370;-3.750;2022-09-21T07:50:02;0.70;;;0.52;;
47401;SDS011;33155;48.370;-3.750;2022-09-21T07:52:28;0.57;;;0.40;;
47401;SDS011;33155;48.370;-3.750;2022-09-21T07:54:53;0.70;;;0.45;;
47401;SDS011;33155;48.370;-3.750;2022-09-21T07:57:19;0.52;;;0.40;;
47401;SDS011;33155;48.370;-3.750;2022-09-21T08:00:03;0.82;;;0.60;;
47401;SDS011;33155;48.370;-3.750;2022-09-21T08:02:29;0.93;;;0.50;;
47401;SDS011;33155;48.370;-3.750;2022-09-21T08:04:54;0.80;;;0.60;;
47401;SDS011;33155;48.370;-3.750;2022-09-21T08:07:20;0.70;;;0.60;;
47401;SDS011;33155;48.370;-3.750;2022-09-21T08:09:45;0.77;;;0.43;;
47401;SDS011;33155;48.370;-3.750;2022-09-21T08:12:13;0.77;;;0.60;;
47401;SDS011;33155;48.370;-3.750;2022-09-21T08:14:41;1.83;;;0.60;;
47401;SDS011;33155;48.370;-3.750;2022-09-21T08:17:07;0.88;;;0.60;;
47401;SDS011;33155;48.370;-3.750;2022-09-21T08:19:32;1.15;;;0.93;;
47401;SDS011;33155;48.370;-3.750;2022-09-21T08:22:00;1.15;;;0.63;;
47401;SDS011;33155;48.370;-3.750;2022-09-21T08:24:25;1.10;;;0.70;;
47401;SDS011;33155;48.370;-3.750;2022-09-21T08:26:51;0.93;;;0.77;;
47401;SDS011;33155;48.370;-3.750;2022-09-21T08:29:16;1.10;;;0.90;;
47401;SDS011;33155;48.370;-3.750;2022-09-21T08:31:42;1.40;;;0.63;;
47401;SDS011;33155;48.370;-3.750;2022-09-21T08:34:08;1.02;;;0.63;;
47401;SDS011;33155;48.370;-3.750;2022-09-21T08:36:33;1.08;;;0.65;;
47401;SDS011;33155;48.370;-3.750;2022-09-21T08:38:59;0.95;;;0.70;;
47401;SDS011;33155;48.370;-3.750;2022-09-21T08:41:32;2.13;;;0.70;;
47401;SDS011;33155;48.370;-3.750;2022-09-21T08:44:14;0.95;;;0.70;;
47401;SDS011;33155;48.370;-3.750;2022-09-21T08:46:43;0.88;;;0.55;;
47401;SDS011;33155;48.370;-3.750;2022-09-21T08:49:12;0.85;;;0.40;;
47401;SDS011;33155;48.370;-3.750;2022-09-21T08:51:55;0.77;;;0.60;;
47401;SDS011;33155;48.370;-3.750;2022-09-21T08:54:24;3.00;;;0.60;;
47401;SDS011;33155;48.370;-3.750;2022-09-21T08:56:53;1.35;;;1.00;;
47401;SDS011;33155;48.370;-3.750;2022-09-21T08:59:18;0.43;;;0.43;;
47401;SDS011;33155;48.370;-3.750;2022-09-21T09:01:48;0.70;;;0.50;;
47401;SDS011;33155;48.370;-3.750;2022-09-21T09:06:59;0.50;;;0.50;;
47401;SDS011;33155;48.370;-3.750;2022-09-21T09:09:41;0.70;;;0.60;;
47401;SDS011;33155;48.370;-3.750;2022-09-21T09:18:13;0.47;;;0.47;;
47401;SDS011;33155;48.370;-3.750;2022-09-21T09:20:44;0.47;;;0.47;;
47401;SDS011;33155;48.370;-3.750;2022-09-21T09:25:45;0.45;;;0.40;;
47401;SDS011;33155;48.370;-3.750;2022-09-21T09:28:23;0.73;;;0.30;;
47401;SDS011;33155;48.370;-3.750;2022-09-21T09:30:56;0.60;;;0.45;;
47401;SDS011;33155;48.370;-3.750;2022-09-21T09:33:29;2.55;;;0.80;;
47401;SDS011;33155;48.370;-3.750;2022-09-21T09:36:02;0.85;;;0.47;;
47401;SDS011;33155;48.370;-3.750;2022-09-21T09:38:40;0.80;;;0.50;;
47401;SDS011;33155;48.370;-3.750;2022-09-21T09:41:29;0.45;;;0.45;;
47401;SDS011;33155;48.370;-3.750;2022-09-21T09:47:23;0.93;;;0.73;;
47401;SDS011;33155;48.370;-3.750;2022-09-21T09:50:07;1.30;;;0.60;;
47401;SDS011;33155;48.370;-3.750;2022-09-21T09:52:33;0.50;;;0.50;;
47401;SDS011;33155;48.370;-3.750;2022-09-21T09:54:59;1.00;;;0.70;;
47401;SDS011;33155;48.370;-3.750;2022-09-21T09:57:27;1.40;;;0.80;;
47401;SDS011;33155;48.370;-3.750;2022-09-21T09:59:54;1.63;;;1.00;;
47401;SDS011;33155;48.370;-3.750;2022-09-21T10:02:24;1.13;;;1.00;;
47401;SDS011;33155;48.370;-3.750;2022-09-21T10:04:55;1.40;;;1.00;;
47401;SDS011;33155;48.370;-3.750;2022-09-21T10:07:40;1.90;;;0.80;;
47401;SDS011;33155;48.370;-3.750;2022-09-21T10:10:28;1.35;;;1.05;;
47401;SDS011;33155;48.370;-3.750;2022-09-21T10:12:56;1.35;;;1.05;;
47401;SDS011;33155;48.370;-3.750;2022-09-21T10:15:26;1.80;;;1.23;;
47401;SDS011;33155;48.370;-3.750;2022-09-21T10:17:56;1.08;;;0.98;;
47401;SDS011;33155;48.370;-3.750;2022-09-21T10:20:27;2.28;;;1.60;;
47401;SDS011;33155;48.370;-3.750;2022-09-21T10:22:54;1.50;;;1.00;;
47401;SDS011;33155;48.370;-3.750;2022-09-21T10:25:21;1.10;;;0.95;;
47401;SDS011;33155;48.370;-3.750;2022-09-21T10:27:47;2.10;;;1.00;;
47401;SDS011;33155;48.370;-3.750;2022-09-21T10:32:56;1.30;;;0.90;;
47401;SDS011;33155;48.370;-3.750;2022-09-21T10:35:22;1.17;;;1.00;;
47401;SDS011;33155;48.370;-3.750;2022-09-21T10:38:07;1.95;;;0.95;;
47401;SDS011;33155;48.370;-3.750;2022-09-21T10:40:37;2.55;;;1.40;;
47401;SDS011;33155;48.370;-3.750;2022-09-21T10:43:02;1.35;;;1.08;;
47401;SDS011;33155;48.370;-3.750;2022-09-21T10:45:29;1.58;;;1.30;;
47401;SDS011;33155;48.370;-3.750;2022-09-21T10:50:42;2.65;;;1.40;;
47401;SDS011;33155;48.370;-3.750;2022-09-21T10:55:37;1.40;;;1.30;;
47401;SDS011;33155;48.370;-3.750;2022-09-21T10:58:10;1.55;;;1.38;;
47401;SDS011;33155;48.370;-3.750;2022-09-21T11:00:40;1.85;;;1.40;;
47401;SDS011;33155;48.370;-3.750;2022-09-21T11:05:54;1.40;;;1.27;;
47401;SDS011;33155;48.370;-3.750;2022-09-21T11:08:56;1.15;;;1.02;;
47401;SDS011;33155;48.370;-3.750;2022-09-21T11:19:27;2.10;;;1.88;;
47401;SDS011;33155;48.370;-3.750;2022-09-21T11:24:39;1.80;;;1.65;;
47401;SDS011;33155;48.370;-3.750;2022-09-21T11:27:29;2.03;;;1.40;;
47401;SDS011;33155;48.370;-3.750;2022-09-21T11:38:04;1.85;;;1.30;;
47401;SDS011;33155;48.370;-3.750;2022-09-21T11:41:00;2.63;;;1.60;;
47401;SDS011;33155;48.370;-3.750;2022-09-21T11:46:29;1.65;;;1.20;;
47401;SDS011;33155;48.370;-3.750;2022-09-21T11:51:38;1.95;;;1.48;;
47401;SDS011;33155;48.370;-3.750;2022-09-21T11:57:22;2.95;;;1.58;;
47401;SDS011;33155;48.370;-3.750;2022-09-21T12:05:14;1.40;;;1.20;;
47401;SDS011;33155;48.370;-3.750;2022-09-21T12:07:52;1.98;;;1.55;;
47401;SDS011;33155;48.370;-3.750;2022-09-21T12:24:19;1.67;;;1.48;;
47401;SDS011;33155;48.370;-3.750;2022-09-21T12:26:55;1.15;;;1.02;;
47401;SDS011;33155;48.370;-3.750;2022-09-21T12:32:13;1.40;;;1.05;;
47401;SDS011;33155;48.370;-3.750;2022-09-21T12:34:52;1.20;;;0.98;;
47401;SDS011;33155;48.370;-3.750;2022-09-21T12:42:56;1.17;;;1.05;;
47401;SDS011;33155;48.370;-3.750;2022-09-21T12:45:47;2.05;;;1.30;;
47401;SDS011;33155;48.370;-3.750;2022-09-21T12:51:13;1.73;;;1.27;;
47401;SDS011;33155;48.370;-3.750;2022-09-21T12:53:49;2.08;;;1.20;;
47401;SDS011;33155;48.370;-3.750;2022-09-21T12:59:05;2.25;;;1.20;;
47401;SDS011;33155;48.370;-3.750;2022-09-21T13:09:48;1.33;;;0.93;;
47401;SDS011;33155;48.370;-3.750;2022-09-21T13:14:58;1.17;;;0.88;;
47401;SDS011;33155;48.370;-3.750;2022-09-21T13:17:28;1.90;;;1.00;;
47401;SDS011;33155;48.370;-3.750;2022-09-21T13:19:56;1.30;;;1.00;;
47401;SDS011;33155;48.370;-3.750;2022-09-21T13:22:42;1.15;;;1.00;;
47401;SDS011;33155;48.370;-3.750;2022-09-21T13:27:58;1.63;;;1.17;;
47401;SDS011;33155;48.370;-3.750;2022-09-21T13:33:03;1.38;;;1.02;;
47401;SDS011;33155;48.370;-3.750;2022-09-21T13:35:51;1.15;;;0.90;;
47401;SDS011;33155;48.370;-3.750;2022-09-21T13:43:46;1.38;;;1.00;;
47401;SDS011;33155;48.370;-3.750;2022-09-21T13:48:56;0.90;;;0.70;;
47401;SDS011;33155;48.370;-3.750;2022-09-21T13:51:22;0.88;;;0.75;;
47401;SDS011;33155;48.370;-3.750;2022-09-21T13:53:52;0.88;;;0.73;;
47401;SDS011;33155;48.370;-3.750;2022-09-21T13:56:20;1.02;;;0.82;;
47401;SDS011;33155;48.370;-3.750;2022-09-21T13:58:49;1.52;;;0.82;;
47401;SDS011;33155;48.370;-3.750;2022-09-21T14:01:20;2.13;;;1.10;;
47401;SDS011;33155;48.370;-3.750;2022-09-21T14:03:54;1.50;;;1.00;;
47401;SDS011;33155;48.370;-3.750;2022-09-21T14:06:29;1.10;;;1.00;;
47401;SDS011;33155;48.370;-3.750;2022-09-21T14:11:32;1.10;;;0.90;;
47401;SDS011;33155;48.370;-3.750;2022-09-21T14:14:12;2.65;;;1.42;;
47401;SDS011;33155;48.370;-3.750;2022-09-21T14:16:52;1.35;;;1.10;;
47401;SDS011;33155;48.370;-3.750;2022-09-21T14:29:57;1.08;;;0.90;;
47401;SDS011;33155;48.370;-3.750;2022-09-21T14:32:25;0.80;;;0.80;;
47401;SDS011;33155;48.370;-3.750;2022-09-21T14:34:53;1.23;;;1.02;;
47401;SDS011;33155;48.370;-3.750;2022-09-21T14:37:31;1.45;;;0.60;;
47401;SDS011;33155;48.370;-3.750;2022-09-21T14:39:59;0.82;;;0.73;;
47401;SDS011;33155;48.370;-3.750;2022-09-21T14:42:29;1.08;;;0.90;;
47401;SDS011;33155;48.370;-3.750;2022-09-21T14:44:57;0.90;;;0.75;;
47401;SDS011;33155;48.370;-3.750;2022-09-21T14:47:29;1.17;;;0.60;;
47401;SDS011;33155;48.370;-3.750;2022-09-21T14:55:19;1.02;;;0.57;;
47401;SDS011;33155;48.370;-3.750;2022-09-21T15:00:40;0.95;;;0.60;;
47401;SDS011;33155;48.370;-3.750;2022-09-21T15:06:32;0.95;;;0.60;;
47401;SDS011;33155;48.370;-3.750;2022-09-21T15:17:56;0.70;;;0.60;;
47401;SDS011;33155;48.370;-3.750;2022-09-21T15:20:25;1.75;;;1.00;;
47401;SDS011;33155;48.370;-3.750;2022-09-21T15:22:55;1.73;;;1.30;;
47401;SDS011;33155;48.370;-3.750;2022-09-21T15:25:23;1.20;;;0.98;;
47401;SDS011;33155;48.370;-3.750;2022-09-21T15:27:53;1.25;;;0.90;;
47401;SDS011;33155;48.370;-3.750;2022-09-21T15:32:52;1.10;;;0.93;;
47401;SDS011;33155;48.370;-3.750;2022-09-21T15:35:26;1.15;;;0.90;;
47401;SDS011;33155;48.370;-3.750;2022-09-21T15:37:53;1.15;;;0.70;;
47401;SDS011;33155;48.370;-3.750;2022-09-21T15:40:20;1.17;;;0.70;;
47401;SDS011;33155;48.370;-3.750;2022-09-21T15:45:57;0.77;;;0.60;;
47401;SDS011;33155;48.370;-3.750;2022-09-21T15:48:26;1.55;;;0.65;;
47401;SDS011;33155;48.370;-3.750;2022-09-21T15:51:43;1.15;;;0.88;;
47401;SDS011;33155;48.370;-3.750;2022-09-21T15:53:55;0.85;;;0.80;;
47401;SDS011;33155;48.370;-3.750;2022-09-21T15:56:31;0.50;;;0.45;;
47401;SDS011;33155;48.370;-3.750;2022-09-21T15:59:05;1.02;;;0.60;;
47401;SDS011;33155;48.370;-3.750;2022-09-21T16:01:41;0.60;;;0.60;;
47401;SDS011;33155;48.370;-3.750;2022-09-21T16:04:13;0.80;;;0.50;;
47401;SDS011;33155;48.370;-3.750;2022-09-21T16:06:44;0.73;;;0.60;;
47401;SDS011;33155;48.370;-3.750;2022-09-21T16:11:50;0.65;;;0.60;;
47401;SDS011;33155;48.370;-3.750;2022-09-21T16:14:17;0.30;;;0.30;;
47401;SDS011;33155;48.370;-3.750;2022-09-21T16:17:20;0.70;;;0.70;;
47401;SDS011;33155;48.370;-3.750;2022-09-21T16:22:16;0.75;;;0.65;;
47401;SDS011;33155;48.370;-3.750;2022-09-21T16:24:49;0.85;;;0.70;;
47401;SDS011;33155;48.370;-3.750;2022-09-21T16:27:17;0.88;;;0.80;;
47401;SDS011;33155;48.370;-3.750;2022-09-21T16:29:44;0.77;;;0.70;;
47401;SDS011;33155;48.370;-3.750;2022-09-21T16:34:46;1.70;;;0.60;;
47401;SDS011;33155;48.370;-3.750;2022-09-21T16:37:20;1.17;;;0.82;;
47401;SDS011;33155;48.370;-3.750;2022-09-21T16:39:48;0.75;;;0.60;;
47401;SDS011;33155;48.370;-3.750;2022-09-21T16:42:23;0.75;;;0.55;;
47401;SDS011;33155;48.370;-3.750;2022-09-21T16:44:55;0.95;;;0.70;;
47401;SDS011;33155;48.370;-3.750;2022-09-21T16:47:21;0.30;;;0.30;;
47401;SDS011;33155;48.370;-3.750;2022-09-21T16:49:54;0.57;;;0.52;;
47401;SDS011;33155;48.370;-3.750;2022-09-21T16:52:22;0.63;;;0.52;;
47401;SDS011;33155;48.370;-3.750;2022-09-21T16:54:48;0.90;;;0.45;;
47401;SDS011;33155;48.370;-3.750;2022-09-21T16:57:14;0.70;;;0.57;;
47401;SDS011;33155;48.370;-3.750;2022-09-21T16:59:40;0.55;;;0.50;;
47401;SDS011;33155;48.370;-3.750;2022-09-21T17:02:08;0.47;;;0.47;;
47401;SDS011;33155;48.370;-3.750;2022-09-21T17:04:34;0.50;;;0.50;;
47401;SDS011;33155;48.370;-3.750;2022-09-21T17:07:00;0.38;;;0.38;;
47401;SDS011;33155;48.370;-3.750;2022-09-21T17:09:31;0.40;;;0.32;;
47401;SDS011;33155;48.370;-3.750;2022-09-21T17:11:57;0.40;;;0.40;;
47401;SDS011;33155;48.370;-3.750;2022-09-21T17:14:25;0.30;;;0.25;;
47401;SDS011;33155;48.370;-3.750;2022-09-21T17:16:59;0.55;;;0.30;;
47401;SDS011;33155;48.370;-3.750;2022-09-21T17:19:28;0.50;;;0.35;;
47401;SDS011;33155;48.370;-3.750;2022-09-21T17:21:55;0.28;;;0.28;;
47401;SDS011;33155;48.370;-3.750;2022-09-21T17:24:21;0.40;;;0.40;;
47401;SDS011;33155;48.370;-3.750;2022-09-21T17:26:47;0.40;;;0.30;;
47401;SDS011;33155;48.370;-3.750;2022-09-21T17:29:22;0.30;;;0.30;;
47401;SDS011;33155;48.370;-3.750;2022-09-21T17:31:54;0.75;;;0.40;;
47401;SDS011;33155;48.370;-3.750;2022-09-21T17:34:22;0.43;;;0.40;;
47401;SDS011;33155;48.370;-3.750;2022-09-21T17:36:49;0.40;;;0.40;;
47401;SDS011;33155;48.370;-3.750;2022-09-21T17:39:16;0.20;;;0.20;;
47401;SDS011;33155;48.370;-3.750;2022-09-21T17:41:46;0.30;;;0.30;;
47401;SDS011;33155;48.370;-3.750;2022-09-21T17:47:24;0.45;;;0.20;;
47401;SDS011;33155;48.370;-3.750;2022-09-21T17:49:52;0.50;;;0.32;;
47401;SDS011;33155;48.370;-3.750;2022-09-21T17:52:19;0.30;;;0.30;;
47401;SDS011;33155;48.370;-3.750;2022-09-21T17:55:04;0.57;;;0.40;;
47401;SDS011;33155;48.370;-3.750;2022-09-21T18:00:26;0.30;;;0.30;;
47401;SDS011;33155;48.370;-3.750;2022-09-21T18:05:51;0.40;;;0.30;;
47401;SDS011;33155;48.370;-3.750;2022-09-21T18:08:23;0.30;;;0.30;;
47401;SDS011;33155;48.370;-3.750;2022-09-21T18:22:41;1.73;;;0.43;;
47401;SDS011;33155;48.370;-3.750;2022-09-21T18:24:49;0.65;;;0.40;;
47401;SDS011;33155;48.370;-3.750;2022-09-21T18:27:16;0.40;;;0.40;;
47401;SDS011;33155;48.370;-3.750;2022-09-21T18:29:42;0.93;;;0.60;;
47401;SDS011;33155;48.370;-3.750;2022-09-21T18:45:44;1.85;;;0.35;;
47401;SDS011;33155;48.370;-3.750;2022-09-21T18:48:20;0.70;;;0.50;;
47401;SDS011;33155;48.370;-3.750;2022-09-21T18:51:09;0.43;;;0.40;;
47401;SDS011;33155;48.370;-3.750;2022-09-21T18:53:46;0.68;;;0.50;;
47401;SDS011;33155;48.370;-3.750;2022-09-21T18:56:14;0.52;;;0.52;;
47401;SDS011;33155;48.370;-3.750;2022-09-21T18:58:40;0.60;;;0.40;;
47401;SDS011;33155;48.370;-3.750;2022-09-21T19:01:10;0.60;;;0.50;;
47401;SDS011;33155;48.370;-3.750;2022-09-21T19:03:36;0.30;;;0.30;;
47401;SDS011;33155;48.370;-3.750;2022-09-21T19:11:42;0.68;;;0.50;;
47401;SDS011;33155;48.370;-3.750;2022-09-21T19:14:15;0.40;;;0.40;;
47401;SDS011;33155;48.370;-3.750;2022-09-21T19:25:55;0.68;;;0.40;;
47401;SDS011;33155;48.370;-3.750;2022-09-21T19:31:12;0.70;;;0.65;;
47401;SDS011;33155;48.370;-3.750;2022-09-21T19:33:39;0.50;;;0.50;;
47401;SDS011;33155;48.370;-3.750;2022-09-21T19:36:05;0.40;;;0.40;;
47401;SDS011;33155;48.370;-3.750;2022-09-21T19:38:32;0.90;;;0.63;;
47401;SDS011;33155;48.370;-3.750;2022-09-21T19:41:02;0.32;;;0.30;;
47401;SDS011;33155;48.370;-3.750;2022-09-21T19:43:37;0.77;;;0.70;;
47401;SDS011;33155;48.370;-3.750;2022-09-21T19:48:58;0.85;;;0.70;;
47401;SDS011;33155;48.370;-3.750;2022-09-21T19:51:49;0.88;;;0.60;;
47401;SDS011;33155;48.370;-3.750;2022-09-21T19:54:19;0.50;;;0.50;;
47401;SDS011;33155;48.370;-3.750;2022-09-21T19:59:59;0.65;;;0.63;;
